Time;durP1;ratioP1;P1;durP2;ratioP2;P2;SDS_P1;SDS_P2;PMS_P1;PMS_P2;Temp;Humidity;BMP_temperature;BMP_pressure;BME280_temperature;BME280_humidity;BME280_pressure;Samples;Min_cycle;Max_cycle;Signal;HPM_P1;HPM_P2
2024/01/31 00:00:52;;;;;;;;;7.00;5.00;;;;;;;;4979985;28;45679;-70
2024/01/31 00:03:17;;;;;;;;;1.67;1.00;;;;;;;;4980382;28;45412;-70
2024/01/31 00:05:42;;;;;;;;;7.67;7.33;;;;;;;;4979727;28;46221;-70
2024/01/31 00:08:08;;;;;;;;;6.67;6.00;;;;;;;;4980039;28;45376;-70
2024/01/31 00:10:33;;;;;;;;;7.33;6.00;;;;;;;;4970879;28;45359;-70
2024/01/31 00:12:58;;;;;;;;;7.00;7.00;;;;;;;;4979878;28;45391;-70
2024/01/31 00:15:23;;;;;;;;;6.67;5.67;;;;;;;;4980308;28;45353;-70
2024/01/31 00:17:48;;;;;;;;;5.33;5.33;;;;;;;;4979944;28;45514;-70
2024/01/31 00:20:14;;;;;;;;;5.00;4.00;;;;;;;;4978720;28;45404;-70
2024/01/31 00:22:39;;;;;;;;;5.75;5.75;;;;;;;;4979159;28;45471;-70
2024/01/31 00:25:05;;;;;;;;;5.00;5.00;;;;;;;;4979370;28;46313;-70
2024/01/31 00:27:30;;;;;;;;;5.00;5.00;;;;;;;;4976501;28;45458;-70
2024/01/31 00:29:55;;;;;;;;;5.00;5.00;;;;;;;;4971051;28;45372;-70
2024/01/31 00:32:20;;;;;;;;;5.33;4.67;;;;;;;;4978222;28;45396;-70
2024/01/31 00:34:45;;;;;;;;;4.00;4.00;;;;;;;;4968543;28;46217;-70
2024/01/31 00:37:10;;;;;;;;;6.00;5.00;;;;;;;;4979804;28;45594;-70
2024/01/31 00:39:36;;;;;;;;;5.00;5.00;;;;;;;;4979421;28;45634;-70
2024/01/31 00:42:01;;;;;;;;;6.67;4.00;;;;;;;;4979559;28;45522;-70
2024/01/31 00:44:26;;;;;;;;;5.33;5.00;;;;;;;;4978672;28;45999;-70
2024/01/31 00:46:52;;;;;;;;;7.50;6.75;;;;;;;;4978818;28;45391;-70
2024/01/31 00:49:17;;;;;;;;;6.00;6.00;;;;;;;;4979889;28;45430;-70
2024/01/31 00:51:43;;;;;;;;;5.25;5.25;;;;;;;;4979302;28;45428;-70
2024/01/31 00:54:09;;;;;;;;;3.75;3.75;;;;;;;;4979347;28;45314;-70
2024/01/31 00:56:34;;;;;;;;;6.25;6.25;;;;;;;;4979582;28;45364;-70
2024/01/31 00:59:00;;;;;;;;;6.00;6.00;;;;;;;;4979650;28;45365;-70
2024/01/31 01:01:25;;;;;;;;;4.75;4.75;;;;;;;;4979512;28;45517;-70
2024/01/31 01:03:50;;;;;;;;;6.33;6.33;;;;;;;;4979555;28;45431;-70
2024/01/31 01:06:16;;;;;;;;;6.00;6.00;;;;;;;;4978654;28;45246;-70
2024/01/31 01:08:41;;;;;;;;;5.00;4.00;;;;;;;;4975367;28;45325;-70
2024/01/31 01:11:06;;;;;;;;;7.67;6.00;;;;;;;;4956575;28;45433;-70
2024/01/31 01:13:31;;;;;;;;;6.00;5.67;;;;;;;;4979202;28;45337;-70
2024/01/31 01:15:56;;;;;;;;;9.00;7.33;;;;;;;;4979377;28;45433;-70
2024/01/31 01:18:21;;;;;;;;;7.00;5.00;;;;;;;;4978922;28;45842;-70
2024/01/31 01:20:47;;;;;;;;;5.00;5.00;;;;;;;;4961677;28;45309;-70
2024/01/31 01:23:14;;;;;;;;;4.00;4.00;;;;;;;;4979209;28;46333;-70
2024/01/31 01:25:40;;;;;;;;;4.50;3.50;;;;;;;;4979225;28;45418;-70
2024/01/31 01:28:05;;;;;;;;;9.00;8.00;;;;;;;;4971499;28;45375;-70
2024/01/31 01:30:30;;;;;;;;;10.25;7.75;;;;;;;;4975137;28;45298;-70
2024/01/31 01:32:56;;;;;;;;;6.67;6.67;;;;;;;;4972730;28;46448;-70
2024/01/31 01:35:21;;;;;;;;;6.67;3.00;;;;;;;;4955968;28;45483;-70
2024/01/31 01:37:46;;;;;;;;;11.33;8.00;;;;;;;;4981179;28;45622;-70
2024/01/31 01:40:11;;;;;;;;;8.50;7.75;;;;;;;;4981566;28;45506;-70
2024/01/31 01:42:39;;;;;;;;;3.25;3.00;;;;;;;;4981316;28;46533;-70
2024/01/31 01:45:05;;;;;;;;;10.00;8.25;;;;;;;;4979617;28;45578;-70
2024/01/31 01:47:30;;;;;;;;;8.75;6.25;;;;;;;;4982592;28;45367;-70
2024/01/31 01:49:55;;;;;;;;;8.50;6.00;;;;;;;;4982451;28;45483;-70
2024/01/31 01:52:20;;;;;;;;;8.00;7.25;;;;;;;;4964998;28;47241;-70
2024/01/31 01:54:46;;;;;;;;;9.67;7.67;;;;;;;;4982095;28;45455;-70
2024/01/31 01:57:11;;;;;;;;;9.00;8.00;;;;;;;;4982076;28;45238;-70
2024/01/31 01:59:36;;;;;;;;;11.00;9.00;;;;;;;;4982401;28;45353;-70
2024/01/31 02:02:02;;;;;;;;;8.00;8.00;;;;;;;;4982215;28;46451;-70
2024/01/31 02:04:28;;;;;;;;;9.00;8.75;;;;;;;;4982303;28;45334;-70
2024/01/31 02:06:53;;;;;;;;;9.00;7.75;;;;;;;;4973399;28;45404;-70
2024/01/31 02:09:19;;;;;;;;;8.67;8.67;;;;;;;;4970566;28;45404;-70
2024/01/31 02:11:44;;;;;;;;;10.50;9.75;;;;;;;;4969046;28;45377;-70
2024/01/31 02:14:09;;;;;;;;;9.33;6.33;;;;;;;;4981826;28;45344;-70
2024/01/31 02:16:34;;;;;;;;;9.00;8.00;;;;;;;;4982210;28;45562;-70
2024/01/31 02:18:59;;;;;;;;;10.00;9.00;;;;;;;;4981838;28;45519;-70
2024/01/31 02:21:27;;;;;;;;;11.00;9.33;;;;;;;;4981936;28;46057;-70
2024/01/31 02:23:52;;;;;;;;;8.00;7.50;;;;;;;;4981562;28;45695;-70
2024/01/31 02:26:17;;;;;;;;;4.00;4.00;;;;;;;;4982198;28;45373;-70
2024/01/31 02:28:42;;;;;;;;;6.33;6.33;;;;;;;;4969667;28;45395;-70
2024/01/31 02:31:07;;;;;;;;;10.33;9.67;;;;;;;;4981812;28;46674;-70
2024/01/31 02:33:32;;;;;;;;;9.67;8.33;;;;;;;;4976963;28;45639;-70
2024/01/31 02:35:58;;;;;;;;;9.00;8.00;;;;;;;;4977484;28;45531;-70
2024/01/31 02:38:23;;;;;;;;;9.67;9.67;;;;;;;;4955697;28;45341;-70
2024/01/31 02:40:48;;;;;;;;;10.00;8.00;;;;;;;;4981292;28;46595;-70
2024/01/31 02:43:13;;;;;;;;;8.00;8.00;;;;;;;;4981179;28;45380;-70
2024/01/31 02:45:38;;;;;;;;;9.75;9.25;;;;;;;;4981387;28;45306;-70
2024/01/31 02:48:04;;;;;;;;;11.33;11.00;;;;;;;;4981447;28;45234;-70
2024/01/31 02:50:31;;;;;;;;;12.00;11.00;;;;;;;;4963732;28;48047;-70
2024/01/31 02:52:56;;;;;;;;;10.00;8.75;;;;;;;;4963895;28;45375;-70
2024/01/31 02:55:21;;;;;;;;;9.33;9.33;;;;;;;;4981409;28;45393;-70
2024/01/31 02:57:47;;;;;;;;;10.00;8.00;;;;;;;;4980914;28;45549;-70
2024/01/31 03:00:12;;;;;;;;;8.75;8.75;;;;;;;;4981189;28;45500;-70
2024/01/31 03:02:39;;;;;;;;;11.25;9.00;;;;;;;;4979901;28;45474;-70
2024/01/31 03:05:04;;;;;;;;;9.75;8.75;;;;;;;;4981222;28;45415;-70
2024/01/31 03:07:30;;;;;;;;;8.00;8.00;;;;;;;;4980098;28;45368;-70
2024/01/31 03:09:55;;;;;;;;;8.00;8.00;;;;;;;;4949260;28;47054;-70
2024/01/31 03:12:20;;;;;;;;;9.67;9.00;;;;;;;;4972973;28;45420;-70
2024/01/31 03:14:45;;;;;;;;;10.00;9.00;;;;;;;;4981108;28;45364;-70
2024/01/31 03:17:10;;;;;;;;;9.67;8.67;;;;;;;;4980838;28;45462;-70
2024/01/31 03:19:37;;;;;;;;;10.33;8.33;;;;;;;;4980835;28;45624;-70
2024/01/31 03:22:05;;;;;;;;;7.25;7.25;;;;;;;;4952080;28;45426;-70
2024/01/31 03:24:30;;;;;;;;;5.75;5.00;;;;;;;;4980800;28;45617;-70
2024/01/31 03:26:55;;;;;;;;;9.00;9.00;;;;;;;;4980918;28;45774;-70
2024/01/31 03:29:20;;;;;;;;;10.00;7.67;;;;;;;;4967821;28;46571;-70
2024/01/31 03:31:46;;;;;;;;;7.67;5.00;;;;;;;;4950747;28;45423;-70
2024/01/31 03:34:11;;;;;;;;;9.25;4.75;;;;;;;;4965056;28;45348;-70
2024/01/31 03:36:36;;;;;;;;;8.67;5.67;;;;;;;;4960259;28;47250;-70
2024/01/31 03:39:02;;;;;;;;;9.75;6.50;;;;;;;;4979747;28;46581;-70
2024/01/31 03:41:27;;;;;;;;;6.33;5.00;;;;;;;;4980681;28;45298;-70
2024/01/31 03:43:53;;;;;;;;;5.50;5.00;;;;;;;;4980450;28;45495;-70
2024/01/31 03:46:18;;;;;;;;;7.00;6.25;;;;;;;;4980577;28;45348;-69
2024/01/31 03:48:44;;;;;;;;;7.67;7.67;;;;;;;;4979555;28;45475;-70
2024/01/31 03:51:22;;;;;;;;;8.25;8.25;;;;;;;;4962764;28;45892;-70
2024/01/31 03:53:48;;;;;;;;;5.00;5.00;;;;;;;;4980255;28;45422;-70
2024/01/31 03:56:14;;;;;;;;;6.50;6.50;;;;;;;;4980330;28;45258;-70
2024/01/31 03:58:39;;;;;;;;;9.00;5.00;;;;;;;;4979512;28;45835;-70
2024/01/31 04:01:04;;;;;;;;;5.00;5.00;;;;;;;;4963030;28;45410;-70
2024/01/31 04:03:30;;;;;;;;;6.25;5.00;;;;;;;;4980344;28;45317;-70
2024/01/31 04:05:55;;;;;;;;;3.67;2.67;;;;;;;;4962051;28;45291;-70
2024/01/31 04:08:20;;;;;;;;;8.25;5.50;;;;;;;;4979480;28;46487;-70
2024/01/31 04:10:45;;;;;;;;;6.33;5.67;;;;;;;;4979987;28;45209;-69
2024/01/31 04:13:11;;;;;;;;;4.33;4.33;;;;;;;;4979983;28;45469;-70
2024/01/31 04:15:36;;;;;;;;;4.00;4.00;;;;;;;;4980176;28;45503;-70
2024/01/31 04:18:03;;;;;;;;;3.00;3.00;;;;;;;;4959251;28;46338;-70
2024/01/31 04:20:28;;;;;;;;;3.00;3.00;;;;;;;;4962619;28;46322;-70
2024/01/31 04:22:53;;;;;;;;;3.00;3.00;;;;;;;;4944154;28;45472;-70
2024/01/31 04:25:18;;;;;;;;;7.33;5.00;;;;;;;;4955111;28;45592;-70
2024/01/31 04:27:43;;;;;;;;;7.00;4.67;;;;;;;;4974740;28;45360;-70
2024/01/31 04:30:10;;;;;;;;;4.00;4.00;;;;;;;;4972549;28;45676;-70
2024/01/31 04:32:35;;;;;;;;;4.75;4.75;;;;;;;;4976253;28;45457;-70
2024/01/31 04:35:00;;;;;;;;;3.50;3.00;;;;;;;;4970844;28;45349;-70
2024/01/31 04:37:25;;;;;;;;;5.67;5.67;;;;;;;;4979293;28;45740;-70
2024/01/31 04:39:51;;;;;;;;;6.33;3.00;;;;;;;;4979596;28;45628;-70
2024/01/31 04:42:17;;;;;;;;;3.75;3.75;;;;;;;;4979656;28;45325;-70
2024/01/31 04:44:45;;;;;;;;;5.00;5.00;;;;;;;;4980031;28;45525;-70
2024/01/31 04:47:10;;;;;;;;;5.75;5.00;;;;;;;;4978693;28;45353;-70
2024/01/31 04:49:35;;;;;;;;;3.00;3.00;;;;;;;;4979909;28;45305;-70
2024/01/31 04:52:01;;;;;;;;;3.00;3.00;;;;;;;;4979670;28;45259;-70
2024/01/31 04:54:26;;;;;;;;;3.33;3.33;;;;;;;;4979532;28;45307;-70
2024/01/31 04:56:51;;;;;;;;;4.00;3.00;;;;;;;;4979401;28;46313;-70
2024/01/31 04:59:16;;;;;;;;;2.00;2.00;;;;;;;;4961963;28;45327;-70
2024/01/31 05:01:43;;;;;;;;;2.00;1.00;;;;;;;;4962082;28;45360;-70
2024/01/31 05:04:08;;;;;;;;;5.00;4.00;;;;;;;;4979418;28;45391;-70
2024/01/31 05:06:33;;;;;;;;;5.00;3.33;;;;;;;;4960562;28;46950;-70
2024/01/31 05:08:58;;;;;;;;;5.00;3.00;;;;;;;;4961303;28;45595;-70
2024/01/31 05:11:24;;;;;;;;;5.00;3.67;;;;;;;;4978126;28;45450;-70
2024/01/31 05:13:49;;;;;;;;;4.33;2.00;;;;;;;;4979247;28;45467;-70
2024/01/31 05:16:14;;;;;;;;;4.00;3.00;;;;;;;;4979010;28;45405;-70
2024/01/31 05:18:39;;;;;;;;;4.00;4.00;;;;;;;;4960858;28;45623;-70
2024/01/31 05:21:04;;;;;;;;;2.33;2.33;;;;;;;;4944105;28;45470;-70
2024/01/31 05:23:30;;;;;;;;;4.00;4.00;;;;;;;;4971192;28;45450;-70
2024/01/31 05:25:55;;;;;;;;;9.25;7.50;;;;;;;;4978771;28;46358;-70
2024/01/31 05:28:21;;;;;;;;;17.33;14.00;;;;;;;;4961590;28;45962;-70
2024/01/31 05:30:46;;;;;;;;;16.67;15.00;;;;;;;;4979243;28;45546;-70
2024/01/31 05:33:12;;;;;;;;;10.00;9.00;;;;;;;;4970584;28;45482;-70
2024/01/31 05:35:37;;;;;;;;;9.75;6.50;;;;;;;;4974452;28;45753;-70
2024/01/31 05:38:03;;;;;;;;;7.67;7.00;;;;;;;;4978571;28;45455;-70
2024/01/31 05:40:28;;;;;;;;;5.50;4.00;;;;;;;;4979017;28;45563;-70
2024/01/31 05:42:54;;;;;;;;;8.00;5.50;;;;;;;;4979118;28;45505;-70
2024/01/31 05:45:19;;;;;;;;;4.67;4.67;;;;;;;;4961248;28;47856;-70
2024/01/31 05:47:44;;;;;;;;;8.25;4.25;;;;;;;;4960450;28;45928;-70
2024/01/31 05:50:10;;;;;;;;;4.00;4.00;;;;;;;;4978254;28;45373;-70
2024/01/31 05:52:35;;;;;;;;;10.00;5.00;;;;;;;;4978795;28;45341;-70
2024/01/31 05:55:00;;;;;;;;;6.33;6.33;;;;;;;;4978675;28;45339;-70
2024/01/31 05:57:25;;;;;;;;;5.00;5.00;;;;;;;;4978560;28;45506;-70
2024/01/31 05:59:50;;;;;;;;;21.00;18.33;;;;;;;;4978815;28;45356;-70
2024/01/31 06:02:16;;;;;;;;;14.00;12.00;;;;;;;;4961224;28;45322;-69
2024/01/31 06:04:41;;;;;;;;;13.00;13.00;;;;;;;;4978469;28;46466;-70
2024/01/31 06:07:07;;;;;;;;;9.00;9.00;;;;;;;;4977594;28;45473;-70
2024/01/31 06:09:32;;;;;;;;;7.00;4.75;;;;;;;;4978452;28;45374;-70
2024/01/31 06:11:57;;;;;;;;;5.67;5.67;;;;;;;;4978689;28;45452;-70
2024/01/31 06:14:22;;;;;;;;;4.00;4.00;;;;;;;;4978437;28;45990;-70
2024/01/31 06:16:48;;;;;;;;;8.00;6.33;;;;;;;;4978723;28;45474;-70
2024/01/31 06:19:13;;;;;;;;;10.33;10.33;;;;;;;;4977461;28;45623;-70
2024/01/31 06:21:38;;;;;;;;;10.33;9.00;;;;;;;;4977960;28;45558;-70
2024/01/31 06:24:03;;;;;;;;;10.75;9.00;;;;;;;;4981323;28;45609;-70
2024/01/31 06:26:30;;;;;;;;;9.50;9.00;;;;;;;;4948065;28;45579;-70
2024/01/31 06:28:56;;;;;;;;;14.25;10.25;;;;;;;;4964329;28;45428;-70
2024/01/31 06:31:25;;;;;;;;;9.00;7.00;;;;;;;;4981696;28;45320;-70
2024/01/31 06:33:50;;;;;;;;;8.75;8.75;;;;;;;;4968315;28;45377;-70
2024/01/31 06:36:18;;;;;;;;;8.00;7.33;;;;;;;;4981381;28;45428;-70
2024/01/31 06:38:43;;;;;;;;;6.50;6.25;;;;;;;;4981239;28;45654;-70
2024/01/31 06:41:11;;;;;;;;;8.67;7.33;;;;;;;;4981671;28;45382;-70
2024/01/31 06:43:36;;;;;;;;;10.50;8.25;;;;;;;;4981425;28;46386;-69
2024/01/31 06:46:02;;;;;;;;;11.00;7.67;;;;;;;;4981610;28;45373;-70
2024/01/31 06:48:28;;;;;;;;;8.00;6.33;;;;;;;;4980369;28;45370;-70
2024/01/31 06:50:53;;;;;;;;;16.25;14.25;;;;;;;;4981507;28;45774;-70
2024/01/31 06:53:18;;;;;;;;;16.33;15.33;;;;;;;;4963551;28;48663;-70
2024/01/31 06:55:44;;;;;;;;;18.00;18.00;;;;;;;;4981326;28;45316;-70
2024/01/31 06:58:09;;;;;;;;;14.67;11.33;;;;;;;;4980892;28;45350;-70
2024/01/31 07:00:34;;;;;;;;;11.67;10.67;;;;;;;;4956241;28;45948;-70
2024/01/31 07:02:59;;;;;;;;;9.00;9.00;;;;;;;;4958218;28;47038;-70
2024/01/31 07:05:24;;;;;;;;;10.00;9.00;;;;;;;;4963590;28;46353;-70
2024/01/31 07:07:50;;;;;;;;;9.33;9.00;;;;;;;;4962474;28;45729;-70
2024/01/31 07:10:15;;;;;;;;;10.75;8.25;;;;;;;;4954346;28;45437;-70
2024/01/31 07:12:40;;;;;;;;;9.50;9.50;;;;;;;;4969985;28;46182;-69
2024/01/31 07:15:06;;;;;;;;;9.33;9.33;;;;;;;;4980989;28;45444;-73
2024/01/31 07:17:31;;;;;;;;;10.50;10.50;;;;;;;;4981005;28;45303;-67
2024/01/31 07:19:57;;;;;;;;;11.75;9.00;;;;;;;;4952817;28;46314;-67
2024/01/31 07:22:22;;;;;;;;;23.00;18.50;;;;;;;;4978580;28;45523;-66
2024/01/31 07:24:47;;;;;;;;;14.00;14.00;;;;;;;;4978354;28;45301;-67
2024/01/31 07:27:13;;;;;;;;;11.00;11.00;;;;;;;;4980100;28;45557;-68
2024/01/31 07:29:38;;;;;;;;;8.25;8.25;;;;;;;;4961450;28;45574;-64
2024/01/31 07:32:04;;;;;;;;;13.75;11.25;;;;;;;;4980830;28;45704;-68
2024/01/31 07:34:29;;;;;;;;;13.25;13.25;;;;;;;;4958039;28;45881;-68
2024/01/31 07:36:54;;;;;;;;;11.25;9.75;;;;;;;;4978734;28;45277;-69
2024/01/31 07:39:19;;;;;;;;;11.67;11.00;;;;;;;;4979854;28;45376;-69
2024/01/31 07:41:45;;;;;;;;;10.33;8.00;;;;;;;;4978796;28;46773;-68
2024/01/31 07:44:10;;;;;;;;;15.67;12.00;;;;;;;;4979999;28;45375;-68
2024/01/31 07:46:35;;;;;;;;;20.25;18.00;;;;;;;;4980540;28;45319;-68
2024/01/31 07:49:00;;;;;;;;;23.25;20.25;;;;;;;;4959315;28;45422;-68
2024/01/31 07:51:26;;;;;;;;;15.25;14.25;;;;;;;;4960887;28;46987;-68
2024/01/31 07:53:51;;;;;;;;;19.33;17.00;;;;;;;;4978980;28;45441;-68
2024/01/31 07:56:16;;;;;;;;;17.75;17.00;;;;;;;;4978051;28;45472;-68
2024/01/31 07:58:41;;;;;;;;;16.33;16.33;;;;;;;;4979302;28;45392;-68
2024/01/31 08:01:07;;;;;;;;;16.33;13.00;;;;;;;;4978623;28;46466;-67
2024/01/31 08:03:34;;;;;;;;;14.67;14.00;;;;;;;;4976337;28;45466;-68
2024/01/31 08:06:00;;;;;;;;;12.25;11.25;;;;;;;;4958945;28;45543;-68
2024/01/31 08:08:25;;;;;;;;;14.00;11.00;;;;;;;;4957024;28;45539;-68
2024/01/31 08:10:50;;;;;;;;;22.00;18.33;;;;;;;;4978839;28;46135;-69
2024/01/31 08:13:15;;;;;;;;;25.00;22.67;;;;;;;;4953161;28;45460;-70
2024/01/31 08:15:40;;;;;;;;;18.75;18.00;;;;;;;;4972525;28;45315;-70
2024/01/31 08:18:06;;;;;;;;;16.33;15.67;;;;;;;;4947791;28;45330;-70
2024/01/31 08:20:31;;;;;;;;;9.25;8.25;;;;;;;;4967121;28;46613;-70
2024/01/31 08:22:56;;;;;;;;;9.67;8.67;;;;;;;;4953013;28;45380;-70
2024/01/31 08:25:21;;;;;;;;;7.00;4.33;;;;;;;;4945327;28;45396;-70
2024/01/31 08:27:50;;;;;;;;;11.00;10.33;;;;;;;;4972295;28;45592;-70
2024/01/31 08:30:16;;;;;;;;;11.00;11.00;;;;;;;;4956839;28;47624;-70
2024/01/31 08:32:41;;;;;;;;;13.50;13.50;;;;;;;;4950440;28;45775;-70
2024/01/31 08:35:06;;;;;;;;;14.67;12.00;;;;;;;;4968202;28;45671;-70
2024/01/31 08:37:31;;;;;;;;;14.50;12.00;;;;;;;;4960241;28;45469;-70
2024/01/31 08:39:56;;;;;;;;;16.00;15.00;;;;;;;;4959710;28;48688;-74
2024/01/31 08:42:23;;;;;;;;;17.67;16.67;;;;;;;;4975551;28;45516;-70
2024/01/31 08:44:48;;;;;;;;;21.75;20.50;;;;;;;;4976687;28;45504;-70
2024/01/31 08:47:13;;;;;;;;;16.33;15.00;;;;;;;;4966288;28;45505;-70
2024/01/31 08:49:38;;;;;;;;;11.00;10.00;;;;;;;;4966602;28;45492;-68
2024/01/31 08:52:04;;;;;;;;;11.75;10.75;;;;;;;;4969250;28;45427;-71
2024/01/31 08:54:30;;;;;;;;;16.00;13.25;;;;;;;;4978369;28;45634;-68
2024/01/31 08:56:56;;;;;;;;;12.75;11.00;;;;;;;;4943572;28;45942;-71
2024/01/31 08:59:22;;;;;;;;;10.00;9.00;;;;;;;;4974551;28;46289;-70
2024/01/31 09:01:48;;;;;;;;;13.75;10.00;;;;;;;;4974216;28;45751;-70
2024/01/31 09:04:13;;;;;;;;;12.00;10.00;;;;;;;;4958825;28;45655;-70
2024/01/31 09:06:40;;;;;;;;;14.33;11.67;;;;;;;;4968255;28;45544;-70
2024/01/31 09:09:06;;;;;;;;;22.25;21.00;;;;;;;;4958022;28;46273;-70
2024/01/31 09:11:31;;;;;;;;;25.50;19.75;;;;;;;;4975730;28;45366;-70
2024/01/31 09:13:56;;;;;;;;;18.00;17.67;;;;;;;;4965203;28;45962;-70
2024/01/31 09:16:22;;;;;;;;;14.00;13.25;;;;;;;;4974369;28;47038;-68
2024/01/31 09:18:47;;;;;;;;;13.67;11.33;;;;;;;;4955310;28;47181;-70
2024/01/31 09:21:22;;;;;;;;;12.00;9.33;;;;;;;;4974348;28;45467;-69
2024/01/31 09:23:47;;;;;;;;;11.50;11.00;;;;;;;;4974888;28;45673;-70
2024/01/31 09:26:12;;;;;;;;;14.25;12.75;;;;;;;;4973717;28;45607;-71
2024/01/31 09:28:38;;;;;;;;;15.00;12.75;;;;;;;;4969573;28;45906;-70
2024/01/31 09:31:03;;;;;;;;;17.50;11.25;;;;;;;;4968526;28;45347;-69
2024/01/31 09:33:29;;;;;;;;;21.50;21.50;;;;;;;;4951533;28;45515;-67
2024/01/31 09:35:54;;;;;;;;;18.67;18.00;;;;;;;;4969080;28;45449;-70
2024/01/31 09:38:19;;;;;;;;;11.00;10.67;;;;;;;;4946271;28;47264;-68
2024/01/31 09:40:44;;;;;;;;;8.75;8.75;;;;;;;;4965077;28;45750;-69
2024/01/31 09:43:10;;;;;;;;;16.25;14.25;;;;;;;;4970060;28;45296;-68
2024/01/31 09:45:36;;;;;;;;;12.00;11.00;;;;;;;;4961797;28;45697;-68
2024/01/31 09:48:01;;;;;;;;;13.75;12.00;;;;;;;;4970995;28;45479;-69
2024/01/31 09:50:26;;;;;;;;;15.67;11.33;;;;;;;;4967519;28;45628;-69
2024/01/31 09:52:55;;;;;;;;;16.33;11.33;;;;;;;;4947717;28;45514;-69
2024/01/31 09:55:21;;;;;;;;;14.25;12.00;;;;;;;;4973403;28;45609;-69
2024/01/31 09:57:46;;;;;;;;;15.50;12.25;;;;;;;;4925432;28;1288209;-69
2024/01/31 10:00:12;;;;;;;;;19.33;18.00;;;;;;;;4962508;28;45882;-68
2024/01/31 10:02:37;;;;;;;;;23.25;22.00;;;;;;;;4968814;28;45575;-68
2024/01/31 10:05:03;;;;;;;;;15.25;14.50;;;;;;;;4962024;28;45584;-68
2024/01/31 10:07:28;;;;;;;;;13.75;13.00;;;;;;;;4973970;28;45378;-69
2024/01/31 10:09:56;;;;;;;;;18.00;15.25;;;;;;;;4979329;28;45597;-68
2024/01/31 10:12:22;;;;;;;;;16.00;16.00;;;;;;;;4958162;28;45597;-68
2024/01/31 10:14:48;;;;;;;;;15.25;15.25;;;;;;;;4975819;28;46734;-68
2024/01/31 10:17:14;;;;;;;;;11.50;11.50;;;;;;;;4971789;28;46300;-68
2024/01/31 10:19:39;;;;;;;;;12.50;11.75;;;;;;;;4975264;28;46015;-68
2024/01/31 10:22:04;;;;;;;;;11.00;11.00;;;;;;;;4956189;28;46048;-69
2024/01/31 10:24:29;;;;;;;;;15.75;14.50;;;;;;;;4950973;28;45528;-69
2024/01/31 10:26:55;;;;;;;;;10.33;10.33;;;;;;;;4953701;28;46011;-69
2024/01/31 10:29:20;;;;;;;;;17.33;17.00;;;;;;;;4978882;28;45441;-69
2024/01/31 10:31:46;;;;;;;;;21.50;20.00;;;;;;;;4972329;28;45440;-68
2024/01/31 10:34:12;;;;;;;;;23.00;22.50;;;;;;;;4977036;28;45583;-68
2024/01/31 10:36:40;;;;;;;;;17.75;17.00;;;;;;;;4978277;28;45587;-68
2024/01/31 10:39:07;;;;;;;;;16.25;14.50;;;;;;;;4948371;28;45451;-69
2024/01/31 10:41:32;;;;;;;;;13.50;13.50;;;;;;;;4971481;28;46852;-69
2024/01/31 10:43:58;;;;;;;;;16.25;13.25;;;;;;;;4950098;28;45738;-69
2024/01/31 10:46:23;;;;;;;;;13.50;13.50;;;;;;;;4948017;28;45753;-69
2024/01/31 10:48:48;;;;;;;;;12.00;10.00;;;;;;;;4978107;28;45380;-68
2024/01/31 10:51:14;;;;;;;;;15.00;15.00;;;;;;;;4975210;28;45425;-68
2024/01/31 10:53:40;;;;;;;;;15.50;12.75;;;;;;;;4969022;28;45618;-68
2024/01/31 10:56:06;;;;;;;;;17.00;17.00;;;;;;;;4974405;28;46575;-68
2024/01/31 10:58:31;;;;;;;;;12.25;12.25;;;;;;;;4971224;28;45517;-68
2024/01/31 11:00:56;;;;;;;;;17.75;16.75;;;;;;;;4979309;28;45560;-68
2024/01/31 11:03:22;;;;;;;;;14.50;12.75;;;;;;;;4974447;28;45441;-67
2024/01/31 11:05:47;;;;;;;;;12.33;11.33;;;;;;;;4973222;28;45696;-68
2024/01/31 11:08:17;;;;;;;;;10.75;9.25;;;;;;;;4966955;28;47036;-68
2024/01/31 11:10:42;;;;;;;;;11.00;11.00;;;;;;;;4978688;28;45392;-70
2024/01/31 11:13:08;;;;;;;;;12.33;9.33;;;;;;;;4972276;28;47189;-70
2024/01/31 11:15:34;;;;;;;;;13.50;11.25;;;;;;;;4973466;28;45765;-70
2024/01/31 11:18:09;;;;;;;;;14.00;12.75;;;;;;;;4958535;28;45595;-70
2024/01/31 11:20:49;;;;;;;;;12.75;12.25;;;;;;;;4972212;28;45505;-70
2024/01/31 11:23:25;;;;;;;;;11.25;11.25;;;;;;;;4967496;28;45829;-70
2024/01/31 11:25:50;;;;;;;;;17.25;13.75;;;;;;;;4968927;28;46563;-69
2024/01/31 11:28:16;;;;;;;;;11.75;11.75;;;;;;;;4979024;28;45617;-70
2024/01/31 11:30:42;;;;;;;;;12.25;11.00;;;;;;;;4979732;28;45334;-70
2024/01/31 11:33:08;;;;;;;;;13.25;13.25;;;;;;;;4974420;28;45843;-70
2024/01/31 11:35:33;;;;;;;;;21.50;17.50;;;;;;;;4979510;28;45890;-70
2024/01/31 11:37:59;;;;;;;;;15.25;13.50;;;;;;;;4979030;28;45532;-70
2024/01/31 11:40:24;;;;;;;;;18.00;14.33;;;;;;;;4979023;28;45553;-70
2024/01/31 11:42:50;;;;;;;;;19.25;16.50;;;;;;;;4977985;28;45460;-70
2024/01/31 11:45:16;;;;;;;;;19.00;16.75;;;;;;;;4972900;28;45646;-70
2024/01/31 11:47:42;;;;;;;;;17.67;16.33;;;;;;;;4971565;28;45463;-69
2024/01/31 11:50:07;;;;;;;;;16.75;13.50;;;;;;;;4961788;28;45410;-69
2024/01/31 11:52:33;;;;;;;;;5.75;4.00;;;;;;;;4955352;28;45940;-69
2024/01/31 11:54:58;;;;;;;;;15.67;13.00;;;;;;;;4969318;28;46359;-69
2024/01/31 11:57:23;;;;;;;;;12.00;10.00;;;;;;;;4960975;28;45519;-70
2024/01/31 11:59:50;;;;;;;;;11.33;9.00;;;;;;;;4975157;28;45540;-71
2024/01/31 12:02:16;;;;;;;;;15.25;13.00;;;;;;;;4951920;28;45744;-71
2024/01/31 12:04:49;;;;;;;;;15.00;12.50;;;;;;;;4958570;28;47247;-70
2024/01/31 12:07:14;;;;;;;;;9.75;9.00;;;;;;;;4974325;28;45867;-70
2024/01/31 12:09:39;;;;;;;;;19.00;14.33;;;;;;;;4969200;28;45482;-70
2024/01/31 12:12:05;;;;;;;;;12.00;11.00;;;;;;;;4970165;28;45666;-70
2024/01/31 12:14:30;;;;;;;;;5.75;4.75;;;;;;;;4970006;28;45578;-71
2024/01/31 12:16:55;;;;;;;;;9.00;8.67;;;;;;;;4948909;28;45480;-70
2024/01/31 12:19:23;;;;;;;;;11.33;11.33;;;;;;;;4968168;28;45572;-70
2024/01/31 12:21:48;;;;;;;;;10.25;10.25;;;;;;;;4973502;28;45768;-70
2024/01/31 12:24:13;;;;;;;;;13.33;12.00;;;;;;;;4966365;28;45903;-70
2024/01/31 12:26:39;;;;;;;;;15.33;13.67;;;;;;;;4957236;28;45713;-71
2024/01/31 12:29:04;;;;;;;;;13.50;12.75;;;;;;;;4965160;28;45473;-70
2024/01/31 12:31:29;;;;;;;;;12.75;11.75;;;;;;;;4943844;28;45506;-70
2024/01/31 12:33:55;;;;;;;;;10.33;10.00;;;;;;;;4965139;28;46374;-70
2024/01/31 12:36:20;;;;;;;;;12.75;11.50;;;;;;;;4948386;28;45878;-70
2024/01/31 12:38:46;;;;;;;;;12.50;12.25;;;;;;;;4975750;28;45642;-70
2024/01/31 12:41:11;;;;;;;;;12.25;11.50;;;;;;;;4975300;28;45543;-71
2024/01/31 12:43:36;;;;;;;;;15.67;13.00;;;;;;;;4973242;28;46293;-71
2024/01/31 12:46:02;;;;;;;;;10.67;9.67;;;;;;;;4969721;28;45530;-71
2024/01/31 12:48:28;;;;;;;;;13.50;11.75;;;;;;;;4949094;28;45462;-72
2024/01/31 12:50:55;;;;;;;;;12.50;12.00;;;;;;;;4973113;28;45501;-72
2024/01/31 12:53:21;;;;;;;;;12.25;12.25;;;;;;;;4968669;28;46354;-72
2024/01/31 12:55:46;;;;;;;;;17.25;14.75;;;;;;;;4976821;28;45429;-73
2024/01/31 12:58:11;;;;;;;;;11.67;10.33;;;;;;;;4976964;28;45369;-72
2024/01/31 13:00:36;;;;;;;;;11.67;10.00;;;;;;;;4976481;28;45611;-72
2024/01/31 13:03:02;;;;;;;;;12.00;10.33;;;;;;;;4978170;28;45357;-72
2024/01/31 13:05:27;;;;;;;;;12.50;11.00;;;;;;;;4960070;28;45434;-72
2024/01/31 13:07:52;;;;;;;;;13.33;13.00;;;;;;;;4975728;28;45584;-72
2024/01/31 13:10:17;;;;;;;;;12.67;11.00;;;;;;;;4971951;28;45333;-72
2024/01/31 13:12:43;;;;;;;;;16.25;12.75;;;;;;;;4962052;28;46269;-73
2024/01/31 13:15:08;;;;;;;;;10.33;10.33;;;;;;;;4966423;28;45457;-70
2024/01/31 13:17:33;;;;;;;;;13.67;10.67;;;;;;;;4970190;28;45814;-70
2024/01/31 13:19:58;;;;;;;;;13.00;12.00;;;;;;;;4967608;28;45696;-71
2024/01/31 13:22:23;;;;;;;;;14.67;13.00;;;;;;;;4969698;28;46231;-71
2024/01/31 13:24:49;;;;;;;;;13.67;13.00;;;;;;;;4967857;28;45845;-71
2024/01/31 13:27:14;;;;;;;;;14.75;13.50;;;;;;;;4964186;28;46036;-71
2024/01/31 13:29:39;;;;;;;;;17.67;15.00;;;;;;;;4970026;28;45696;-71
2024/01/31 13:32:04;;;;;;;;;13.50;13.25;;;;;;;;4967218;28;46221;-72
2024/01/31 13:34:29;;;;;;;;;13.25;12.00;;;;;;;;4969020;28;45545;-73
2024/01/31 13:36:55;;;;;;;;;14.33;14.00;;;;;;;;4972054;28;45330;-72
2024/01/31 13:39:20;;;;;;;;;13.67;11.00;;;;;;;;4975887;28;45474;-73
2024/01/31 13:41:45;;;;;;;;;15.00;14.00;;;;;;;;4975288;28;45538;-73
2024/01/31 13:44:10;;;;;;;;;13.33;12.00;;;;;;;;4974964;28;45456;-72
2024/01/31 13:46:38;;;;;;;;;15.00;13.00;;;;;;;;4980378;28;45683;-72
2024/01/31 13:49:05;;;;;;;;;15.00;14.00;;;;;;;;4973821;28;45366;-73
2024/01/31 13:51:30;;;;;;;;;11.00;9.25;;;;;;;;4978331;28;45440;-73
2024/01/31 13:53:55;;;;;;;;;17.00;13.33;;;;;;;;4975107;28;45378;-72
2024/01/31 13:56:20;;;;;;;;;10.33;9.67;;;;;;;;4971068;28;45250;-72
2024/01/31 13:58:45;;;;;;;;;5.00;4.00;;;;;;;;4975138;28;45628;-72
2024/01/31 14:01:11;;;;;;;;;9.33;9.33;;;;;;;;4977136;28;45418;-72
2024/01/31 14:03:36;;;;;;;;;10.00;8.67;;;;;;;;4979162;28;45484;-72
2024/01/31 14:06:01;;;;;;;;;8.33;8.00;;;;;;;;4968759;28;45378;-72
2024/01/31 14:08:26;;;;;;;;;8.33;8.33;;;;;;;;4963263;28;45655;-72
2024/01/31 14:10:51;;;;;;;;;10.25;7.00;;;;;;;;4969790;28;46667;-72
2024/01/31 14:13:17;;;;;;;;;11.67;9.00;;;;;;;;4952460;28;45461;-72
2024/01/31 14:15:42;;;;;;;;;5.67;4.67;;;;;;;;4956474;28;45295;-72
2024/01/31 14:18:07;;;;;;;;;7.67;6.00;;;;;;;;4980254;28;45525;-73
2024/01/31 14:20:33;;;;;;;;;11.25;6.75;;;;;;;;4977902;28;46458;-72